createdAt,value
2022-08-26T00:02:08.275Z,24.97
2022-08-26T00:04:38.179Z,24.97
2022-08-26T00:07:07.648Z,24.95
2022-08-26T00:09:40.190Z,25.00
2022-08-26T00:12:12.398Z,24.99
2022-08-26T00:14:43.773Z,25.03
2022-08-26T00:17:13.031Z,25.02
2022-08-26T00:19:42.431Z,25.00
2022-08-26T00:22:12.108Z,25.11
2022-08-26T00:24:41.346Z,25.07
2022-08-26T00:27:17.452Z,25.06
2022-08-26T00:29:48.072Z,25.18
2022-08-26T00:32:17.490Z,24.97
2022-08-26T00:34:47.060Z,25.09
2022-08-26T00:37:17.065Z,25.15
2022-08-26T00:39:46.780Z,25.17
2022-08-26T00:42:15.977Z,25.16
2022-08-26T00:44:46.967Z,25.26
2022-08-26T00:47:23.766Z,25.29
2022-08-26T00:49:54.250Z,25.35
2022-08-26T00:52:25.075Z,25.26
2022-08-26T00:55:01.420Z,25.40
2022-08-26T00:57:34.187Z,25.40
2022-08-26T01:00:11.020Z,25.53
2022-08-26T01:02:40.875Z,25.62
2022-08-26T01:05:16.971Z,25.64
2022-08-26T01:07:46.293Z,25.65
2022-08-26T01:10:18.859Z,25.64
2022-08-26T01:12:52.057Z,25.79
2022-08-26T01:15:26.115Z,25.79
2022-08-26T01:17:55.551Z,25.75
2022-08-26T01:20:32.875Z,25.86
2022-08-26T01:23:06.713Z,25.82
2022-08-26T01:25:43.143Z,25.79
2022-08-26T01:28:16.996Z,25.86
2022-08-26T01:30:48.218Z,25.87
2022-08-26T01:33:23.005Z,25.92
2022-08-26T01:35:52.568Z,25.89
2022-08-26T01:38:24.137Z,25.89
2022-08-26T01:40:53.652Z,25.82
2022-08-26T01:43:28.375Z,25.82
2022-08-26T01:45:57.824Z,25.82
2022-08-26T01:48:29.777Z,25.89
2022-08-26T01:51:00.393Z,25.93
2022-08-26T01:53:31.542Z,25.94
2022-08-26T01:56:03.594Z,25.88
2022-08-26T01:58:37.051Z,25.86
2022-08-26T02:01:08.251Z,25.84
2022-08-26T02:03:51.521Z,25.94
2022-08-26T02:06:21.397Z,25.85
2022-08-26T02:08:56.504Z,25.92
2022-08-26T02:11:25.802Z,25.95
2022-08-26T02:14:01.733Z,25.86
2022-08-26T02:16:37.791Z,25.95
2022-08-26T02:19:17.323Z,25.86
2022-08-26T02:21:51.320Z,25.91
2022-08-26T02:24:27.370Z,25.88
2022-08-26T02:26:58.528Z,25.91
2022-08-26T02:29:34.566Z,25.98
2022-08-26T02:32:04.209Z,25.86
2022-08-26T02:34:35.715Z,25.81
2022-08-26T02:37:10.024Z,25.86
2022-08-26T02:39:43.681Z,25.99
2022-08-26T02:42:13.191Z,25.92
2022-08-26T02:44:42.928Z,26.01
2022-08-26T02:47:15.894Z,25.95
2022-08-26T02:49:47.418Z,25.98
2022-08-26T02:52:17.288Z,26.05
2022-08-26T02:54:49.604Z,25.98
2022-08-26T02:57:19.661Z,26.04
2022-08-26T02:59:51.749Z,26.06
2022-08-26T03:02:21.546Z,26.07
2022-08-26T03:04:57.388Z,26.06
2022-08-26T03:07:27.713Z,26.08
2022-08-26T03:09:58.432Z,26.05
2022-08-26T03:16:54.514Z,26.04
2022-08-26T03:19:25.167Z,26.09
2022-08-26T03:21:57.940Z,26.02
2022-08-26T03:24:27.792Z,26.01
2022-08-26T03:26:58.610Z,26.05
2022-08-26T03:29:45.181Z,26.03
2022-08-26T03:32:18.999Z,25.88
2022-08-26T03:34:48.226Z,25.79
2022-08-26T03:37:17.300Z,25.78
2022-08-26T03:39:47.721Z,25.69
2022-08-26T03:42:21.497Z,25.91
2022-08-26T03:44:51.628Z,25.98
2022-08-26T03:47:20.930Z,26.08
2022-08-26T03:49:49.883Z,25.96
2022-08-26T03:52:21.274Z,26.03
2022-08-26T03:54:50.639Z,26.09
2022-08-26T03:57:21.077Z,25.95
2022-08-26T03:59:51.682Z,25.94
2022-08-26T04:02:21.006Z,25.89
2022-08-26T04:04:50.039Z,26.00
2022-08-26T04:07:19.361Z,26.03
2022-08-26T04:09:48.730Z,25.99
2022-08-26T04:12:17.897Z,25.98
2022-08-26T04:14:48.543Z,26.14
2022-08-26T04:17:17.654Z,26.08
2022-08-26T04:19:46.558Z,26.04
2022-08-26T04:22:16.021Z,25.98
2022-08-26T04:24:53.322Z,26.16
2022-08-26T04:27:22.579Z,26.09
2022-08-26T04:29:55.283Z,26.19
2022-08-26T04:32:24.795Z,26.15
2022-08-26T04:34:54.025Z,26.30
2022-08-26T04:37:23.091Z,26.42
2022-08-26T04:39:53.859Z,26.50
2022-08-26T04:42:26.075Z,26.17
2022-08-26T04:44:57.142Z,26.16
2022-08-26T04:47:31.706Z,26.38
2022-08-26T04:50:01.931Z,26.71
2022-08-26T04:52:34.292Z,26.55
2022-08-26T04:55:04.083Z,26.63
2022-08-26T04:57:35.924Z,26.74
2022-08-26T05:00:10.379Z,26.69
2022-08-26T05:02:40.939Z,26.73
2022-08-26T05:05:12.323Z,26.82
2022-08-26T05:07:42.121Z,26.81
2022-08-26T05:10:11.430Z,26.94
2022-08-26T05:12:40.772Z,26.98
2022-08-26T05:15:15.180Z,27.04
2022-08-26T05:17:45.707Z,27.09
2022-08-26T05:20:14.739Z,27.11
2022-08-26T05:22:44.424Z,27.17
2022-08-26T05:25:14.961Z,27.19
2022-08-26T05:27:44.599Z,27.28
2022-08-26T05:30:15.694Z,27.17
2022-08-26T05:32:45.087Z,27.24
2022-08-26T05:35:14.476Z,27.45
2022-08-26T05:37:45.195Z,27.60
2022-08-26T05:40:14.961Z,27.65
2022-08-26T05:42:47.592Z,27.48
2022-08-26T05:45:18.556Z,27.56
2022-08-26T05:47:48.724Z,27.57
2022-08-26T05:50:22.062Z,27.39
2022-08-26T05:52:52.983Z,27.41
2022-08-26T05:55:22.689Z,27.65
2022-08-26T05:57:52.002Z,27.71
2022-08-26T06:00:22.895Z,27.59
2022-08-26T06:02:53.117Z,27.75
2022-08-26T06:05:23.689Z,27.93
2022-08-26T06:08:10.289Z,27.82
2022-08-26T06:10:49.100Z,27.73
2022-08-26T06:13:21.586Z,27.49
2022-08-26T06:15:53.894Z,27.39
2022-08-26T06:18:27.406Z,27.71
2022-08-26T06:20:59.679Z,27.76
2022-08-26T06:23:48.780Z,27.95
2022-08-26T06:26:21.530Z,27.86
2022-08-26T06:28:54.115Z,28.34
2022-08-26T06:31:25.689Z,28.46
2022-08-26T06:33:55.608Z,28.30
2022-08-26T06:36:27.371Z,27.95
2022-08-26T06:39:00.883Z,27.87
2022-08-26T06:41:31.972Z,28.12
2022-08-26T06:44:01.827Z,28.06
2022-08-26T06:46:32.864Z,28.21
2022-08-26T06:49:02.485Z,28.32
2022-08-26T06:51:35.026Z,28.19
2022-08-26T06:54:05.769Z,28.18
2022-08-26T06:56:38.156Z,28.22
2022-08-26T06:59:08.321Z,28.41
2022-08-26T07:01:44.820Z,28.36
2022-08-26T07:04:21.986Z,28.41
2022-08-26T07:06:53.908Z,28.67
2022-08-26T07:09:25.605Z,28.67
2022-08-26T07:11:56.409Z,28.91
2022-08-26T07:14:26.395Z,29.08
2022-08-26T07:16:57.344Z,29.15
2022-08-26T07:19:29.825Z,29.10
2022-08-26T07:22:03.510Z,28.88
2022-08-26T07:24:35.227Z,28.87
2022-08-26T07:27:07.005Z,28.71
2022-08-26T07:29:40.498Z,29.06
2022-08-26T07:32:13.248Z,29.01
2022-08-26T07:34:43.430Z,28.92
2022-08-26T07:37:12.733Z,29.13
2022-08-26T07:39:43.216Z,29.32
2022-08-26T07:42:14.457Z,29.74
2022-08-26T07:44:44.556Z,29.65
2022-08-26T07:47:25.816Z,29.71
2022-08-26T07:49:57.645Z,29.86
2022-08-26T07:52:29.220Z,30.03
2022-08-26T07:55:00.264Z,30.24
2022-08-26T07:57:30.692Z,29.75
2022-08-26T08:00:00.584Z,29.81
2022-08-26T08:02:31.381Z,29.90
2022-08-26T08:05:00.834Z,29.64
2022-08-26T08:07:45.092Z,30.16
2022-08-26T08:10:17.301Z,30.29
2022-08-26T08:12:46.964Z,29.97
2022-08-26T08:15:18.802Z,30.08
2022-08-26T08:17:51.687Z,30.17
2022-08-26T08:20:22.134Z,30.36
2022-08-26T08:22:53.245Z,30.21
2022-08-26T08:25:23.928Z,30.20
2022-08-26T08:27:53.102Z,30.22
2022-08-26T08:30:24.495Z,30.08
2022-08-26T08:32:55.328Z,30.19
2022-08-26T08:35:26.464Z,30.37
2022-08-26T08:37:56.587Z,30.37
2022-08-26T08:40:27.815Z,30.21
2022-08-26T08:43:03.897Z,30.55
2022-08-26T08:45:36.988Z,30.59
2022-08-26T08:48:14.806Z,30.81
2022-08-26T08:50:46.991Z,30.59
2022-08-26T08:53:22.715Z,30.72
2022-08-26T08:56:05.683Z,31.23
2022-08-26T08:58:50.983Z,31.00
2022-08-26T09:01:29.494Z,31.57
2022-08-26T09:04:21.011Z,30.94
2022-08-26T09:06:53.920Z,31.08
2022-08-26T09:09:30.482Z,31.79
2022-08-26T09:12:01.743Z,32.01
2022-08-26T09:14:32.457Z,31.92
2022-08-26T09:17:09.972Z,31.68
2022-08-26T09:19:48.072Z,31.08
2022-08-26T09:22:31.141Z,31.26
2022-08-26T09:25:01.613Z,31.82
2022-08-26T09:27:43.240Z,32.03
2022-08-26T09:30:15.627Z,31.86
2022-08-26T09:32:57.673Z,32.44
2022-08-26T09:35:32.507Z,32.50
2022-08-26T09:38:01.970Z,33.07
2022-08-26T09:40:34.672Z,32.48
2022-08-26T09:43:22.136Z,32.30
2022-08-26T09:45:59.112Z,33.18
2022-08-26T09:48:32.352Z,32.59
2022-08-26T09:51:26.356Z,33.06
2022-08-26T09:53:58.392Z,32.93
2022-08-26T09:56:32.104Z,33.11
2022-08-26T09:59:03.153Z,33.45
2022-08-26T10:01:38.174Z,33.51
2022-08-26T10:04:11.284Z,33.78
2022-08-26T10:06:44.798Z,34.97
2022-08-26T10:09:17.237Z,35.87
2022-08-26T10:11:53.805Z,36.42
2022-08-26T10:14:28.976Z,34.59
2022-08-26T10:17:06.933Z,34.73
2022-08-26T10:19:53.595Z,34.84
2022-08-26T10:22:34.519Z,37.31
2022-08-26T10:25:08.023Z,38.02
2022-08-26T10:27:53.274Z,37.65
2022-08-26T10:30:25.330Z,37.23
2022-08-26T10:32:59.271Z,37.19
2022-08-26T10:35:30.106Z,37.92
2022-08-26T10:38:06.106Z,38.13
2022-08-26T10:40:46.715Z,40.72
2022-08-26T10:43:23.810Z,39.24
2022-08-26T10:45:58.270Z,38.86
2022-08-26T10:48:36.128Z,38.61
2022-08-26T10:51:06.359Z,37.28
2022-08-26T10:53:51.602Z,39.03
2022-08-26T10:56:37.472Z,41.48
2022-08-26T10:59:20.279Z,42.65
2022-08-26T11:01:56.195Z,42.84
2022-08-26T11:04:48.193Z,47.54
2022-08-26T11:07:39.762Z,44.00
2022-08-26T11:10:33.514Z,46.17
2022-08-26T11:13:04.653Z,45.53
2022-08-26T11:16:02.540Z,45.69
2022-08-26T11:18:44.119Z,45.00
2022-08-26T11:21:52.840Z,45.23
2022-08-26T11:25:11.541Z,43.99
2022-08-26T11:27:59.846Z,42.43
2022-08-26T11:30:56.991Z,43.20
2022-08-26T11:33:59.627Z,44.60
2022-08-26T11:36:53.174Z,46.96
2022-08-26T11:39:28.685Z,49.00
2022-08-26T11:42:01.263Z,48.16
2022-08-26T11:44:41.027Z,45.10
2022-08-26T11:47:28.807Z,45.62
2022-08-26T11:50:13.337Z,46.38
2022-08-26T11:52:42.601Z,47.30
2022-08-26T11:55:19.625Z,48.29
2022-08-26T11:57:55.659Z,47.09
2022-08-26T12:00:33.782Z,48.90
2022-08-26T12:03:08.889Z,47.32
2022-08-26T12:05:44.519Z,47.38
2022-08-26T12:08:18.329Z,46.10
2022-08-26T12:10:48.461Z,47.87
2022-08-26T12:13:23.524Z,48.88
2022-08-26T12:15:59.980Z,49.68
2022-08-26T12:18:36.634Z,48.63
2022-08-26T12:21:16.179Z,49.09
2022-08-26T12:23:48.045Z,47.81
2022-08-26T12:26:26.014Z,46.65
2022-08-26T12:28:59.208Z,47.22
2022-08-26T12:31:32.775Z,48.22
2022-08-26T12:34:05.006Z,46.89
2022-08-26T12:36:39.225Z,48.64
2022-08-26T12:39:10.938Z,47.90
2022-08-26T12:41:43.670Z,48.18
2022-08-26T12:44:53.826Z,49.61
2022-08-26T12:47:42.150Z,48.66
2022-08-26T12:50:20.390Z,48.86
2022-08-26T12:52:58.991Z,49.88
2022-08-26T12:55:37.507Z,48.82
2022-08-26T12:58:22.659Z,49.81
2022-08-26T13:00:52.748Z,49.50
2022-08-26T13:03:47.751Z,48.30
2022-08-26T13:06:30.149Z,47.16
2022-08-26T13:09:01.441Z,46.07
2022-08-26T13:11:33.766Z,47.00
2022-08-26T13:14:06.879Z,47.15
2022-08-26T13:16:37.526Z,47.80
2022-08-26T13:19:11.132Z,48.45
2022-08-26T13:21:46.300Z,48.24
2022-08-26T13:24:19.169Z,49.28
2022-08-26T13:26:50.121Z,47.12
2022-08-26T13:29:21.507Z,47.12
2022-08-26T13:31:51.295Z,47.88
2022-08-26T13:34:24.074Z,47.95
2022-08-26T13:36:56.466Z,47.13
2022-08-26T13:39:26.988Z,47.27
2022-08-26T13:41:56.977Z,48.06
2022-08-26T13:44:26.033Z,46.90
2022-08-26T13:46:55.105Z,47.03
2022-08-26T13:49:26.002Z,46.70
2022-08-26T13:51:55.130Z,46.81
2022-08-26T13:54:24.401Z,46.77
2022-08-26T13:56:53.700Z,46.92
2022-08-26T13:59:22.826Z,46.44
2022-08-26T14:01:51.903Z,46.87
2022-08-26T14:04:22.466Z,46.80
2022-08-26T14:06:58.097Z,46.84
2022-08-26T14:09:27.578Z,46.57
2022-08-26T14:11:58.114Z,45.83
2022-08-26T14:14:28.422Z,46.70
2022-08-26T14:17:00.406Z,45.72
2022-08-26T14:19:31.222Z,46.84
2022-08-26T14:22:03.172Z,46.76
2022-08-26T14:24:33.005Z,47.20
2022-08-26T14:27:02.204Z,44.86
2022-08-26T14:29:31.604Z,44.44
2022-08-26T14:32:07.127Z,45.69
2022-08-26T14:34:36.544Z,45.08
2022-08-26T14:37:09.172Z,45.06
2022-08-26T14:39:40.209Z,46.15
2022-08-26T14:42:10.510Z,45.66
2022-08-26T14:44:45.826Z,45.58
2022-08-26T14:47:18.258Z,45.01
2022-08-26T14:49:47.508Z,42.97
2022-08-26T14:52:18.719Z,42.92
2022-08-26T14:54:47.024Z,44.24
2022-08-26T14:57:22.317Z,44.49
2022-08-26T14:59:51.622Z,42.73
2022-08-26T15:02:33.320Z,43.67
2022-08-26T15:05:04.489Z,43.37
2022-08-26T15:07:36.657Z,43.69
2022-08-26T15:10:07.903Z,42.60
2022-08-26T15:12:40.344Z,42.92
2022-08-26T15:15:11.565Z,42.36
2022-08-26T15:17:42.053Z,42.46
2022-08-26T15:20:12.451Z,43.34
2022-08-26T15:22:45.475Z,42.41
2022-08-26T15:25:15.294Z,43.48
2022-08-26T15:27:44.479Z,43.44
2022-08-26T15:30:16.696Z,42.01
2022-08-26T15:32:45.963Z,42.27
2022-08-26T15:35:15.294Z,40.87
2022-08-26T15:37:45.934Z,41.85
2022-08-26T15:40:15.355Z,41.90
2022-08-26T15:42:44.431Z,41.40
2022-08-26T15:45:25.838Z,41.31
2022-08-26T15:48:01.182Z,40.75
2022-08-26T15:50:31.943Z,40.09
2022-08-26T15:53:02.915Z,39.95
2022-08-26T15:55:32.251Z,39.73
2022-08-26T15:58:01.451Z,39.03
2022-08-26T16:00:31.360Z,38.35
2022-08-26T16:03:00.753Z,38.51
2022-08-26T16:05:29.926Z,37.39
2022-08-26T16:07:59.264Z,37.29
2022-08-26T16:10:31.143Z,37.24
2022-08-26T16:13:00.569Z,37.07
2022-08-26T16:15:30.049Z,36.75
2022-08-26T16:18:02.088Z,36.10
2022-08-26T16:20:33.978Z,36.15
2022-08-26T16:23:04.348Z,35.29
2022-08-26T16:25:35.372Z,35.00
2022-08-26T16:28:09.848Z,34.82
2022-08-26T16:30:41.777Z,34.62
2022-08-26T16:33:11.980Z,34.16
2022-08-26T16:38:21.199Z,33.81
2022-08-26T16:40:54.133Z,33.74
2022-08-26T16:43:23.379Z,33.29
2022-08-26T16:45:52.349Z,33.13
2022-08-26T16:48:22.057Z,33.10
2022-08-26T16:50:51.398Z,32.90
2022-08-26T16:53:20.546Z,32.61
2022-08-26T16:55:50.965Z,32.29
2022-08-26T16:58:22.376Z,32.23
2022-08-26T17:00:51.967Z,31.78
2022-08-26T17:03:22.820Z,31.51
2022-08-26T17:05:52.058Z,31.26
2022-08-26T17:08:27.516Z,30.99
2022-08-26T17:11:00.439Z,30.93
2022-08-26T17:13:35.348Z,30.75
2022-08-26T17:16:07.478Z,30.63
2022-08-26T17:18:38.528Z,30.57
2022-08-26T17:21:10.429Z,30.31
2022-08-26T17:23:41.176Z,30.14
2022-08-26T17:26:11.960Z,29.95
2022-08-26T17:28:43.074Z,29.82
2022-08-26T17:31:14.379Z,29.59
2022-08-26T17:33:46.642Z,29.43
2022-08-26T17:36:17.319Z,29.25
2022-08-26T17:38:46.576Z,29.05
2022-08-26T17:41:19.504Z,28.89
2022-08-26T17:43:49.987Z,28.92
2022-08-26T17:46:19.238Z,28.75
2022-08-26T17:48:48.902Z,28.47
2022-08-26T17:51:20.390Z,28.45
2022-08-26T17:53:50.500Z,28.31
2022-08-26T17:56:23.974Z,28.20
2022-08-26T17:58:58.071Z,28.00
2022-08-26T18:01:33.050Z,28.15
2022-08-26T18:04:02.661Z,27.88
2022-08-26T18:06:32.377Z,28.03
2022-08-26T18:09:02.708Z,27.92
2022-08-26T18:11:32.963Z,27.95
2022-08-26T18:14:03.758Z,27.89
2022-08-26T18:16:38.226Z,27.69
2022-08-26T18:19:07.788Z,27.75
2022-08-26T18:21:37.335Z,27.75
2022-08-26T18:24:11.036Z,27.62
2022-08-26T18:26:48.309Z,27.63
2022-08-26T18:29:20.622Z,27.46
2022-08-26T18:31:50.151Z,27.36
2022-08-26T18:34:19.488Z,27.32
2022-08-26T18:36:49.226Z,27.26
2022-08-26T18:39:19.497Z,27.16
2022-08-26T18:41:53.855Z,27.08
2022-08-26T18:44:24.749Z,27.00
2022-08-26T18:46:54.537Z,26.87
2022-08-26T18:49:23.756Z,26.75
2022-08-26T18:51:53.357Z,26.63
2022-08-26T18:54:23.068Z,26.56
2022-08-26T18:56:52.450Z,26.45
2022-08-26T18:59:29.587Z,26.43
2022-08-26T19:02:00.161Z,26.41
2022-08-26T19:04:29.665Z,25.93
2022-08-26T19:06:58.613Z,25.97
2022-08-26T19:09:28.237Z,26.06
2022-08-26T19:11:58.146Z,26.11
2022-08-26T19:14:28.909Z,25.94
2022-08-26T19:17:01.482Z,25.95
2022-08-26T19:19:31.895Z,25.89
2022-08-26T19:22:06.145Z,26.08
2022-08-26T19:24:37.051Z,25.79
2022-08-26T19:27:06.559Z,25.71
2022-08-26T19:29:38.220Z,25.68
2022-08-26T19:32:08.580Z,25.29
2022-08-26T19:34:38.651Z,25.25
2022-08-26T19:37:07.799Z,25.27
2022-08-26T19:39:37.740Z,25.13
2022-08-26T19:42:07.281Z,25.06
2022-08-26T19:44:55.421Z,25.00
2022-08-26T19:47:24.652Z,24.91
2022-08-26T19:49:55.449Z,24.87
2022-08-26T19:52:29.919Z,24.85
2022-08-26T19:55:02.525Z,24.84
2022-08-26T19:57:34.315Z,24.79
2022-08-26T20:00:12.309Z,24.75
2022-08-26T20:02:41.961Z,24.77
2022-08-26T20:05:14.018Z,24.71
2022-08-26T20:07:47.993Z,24.52
2022-08-26T20:10:20.933Z,24.53
2022-08-26T20:12:52.934Z,24.62
2022-08-26T20:15:24.232Z,24.43
2022-08-26T20:17:55.791Z,24.54
2022-08-26T20:20:42.267Z,24.42
2022-08-26T20:23:11.556Z,24.29
2022-08-26T20:25:44.134Z,24.35
2022-08-26T20:28:14.125Z,24.25
2022-08-26T20:30:44.926Z,24.33
2022-08-26T20:33:14.247Z,24.33
2022-08-26T20:35:43.358Z,24.24
2022-08-26T20:38:12.612Z,24.18
2022-08-26T20:40:42.240Z,24.25
2022-08-26T20:43:12.547Z,24.26
2022-08-26T20:45:43.653Z,24.30
2022-08-26T20:48:12.907Z,24.17
2022-08-26T20:50:42.239Z,24.10
2022-08-26T20:53:11.195Z,24.02
2022-08-26T20:55:40.903Z,23.82
2022-08-26T20:58:10.592Z,23.86
2022-08-26T21:00:40.036Z,23.89
2022-08-26T21:03:10.645Z,24.02
2022-08-26T21:05:39.998Z,23.92
2022-08-26T21:08:09.549Z,23.81
2022-08-26T21:10:41.157Z,23.77
2022-08-26T21:13:10.354Z,23.72
2022-08-26T21:15:39.729Z,23.73
2022-08-26T21:18:10.550Z,23.67
2022-08-26T21:20:40.257Z,23.49
2022-08-26T21:23:09.456Z,23.60
2022-08-26T21:25:38.858Z,23.56
2022-08-26T21:28:08.108Z,23.61
2022-08-26T21:30:39.564Z,23.65
2022-08-26T21:33:10.203Z,23.55
2022-08-26T21:35:39.569Z,23.38
2022-08-26T21:38:08.863Z,23.34
2022-08-26T21:40:38.103Z,23.33
2022-08-26T21:43:07.383Z,23.18
2022-08-26T21:45:41.877Z,23.25
2022-08-26T21:48:12.483Z,23.27
2022-08-26T21:50:41.639Z,23.32
2022-08-26T21:53:10.776Z,23.32
2022-08-26T21:55:42.596Z,23.06
2022-08-26T21:58:11.982Z,23.08
2022-08-26T22:00:47.951Z,22.96
2022-08-26T22:03:19.473Z,23.06
2022-08-26T22:05:51.514Z,23.16
2022-08-26T22:08:22.750Z,23.02
2022-08-26T22:10:58.360Z,23.02
2022-08-26T22:13:31.864Z,23.07
2022-08-26T22:16:02.004Z,23.04
2022-08-26T22:18:33.381Z,23.15
2022-08-26T22:21:05.812Z,23.09
2022-08-26T22:23:36.256Z,22.93
2022-08-26T22:26:06.820Z,22.82
2022-08-26T22:28:36.680Z,22.86
2022-08-26T22:31:07.267Z,22.86
2022-08-26T22:33:38.394Z,22.87
2022-08-26T22:36:07.903Z,22.88
2022-08-26T22:38:37.261Z,22.81
2022-08-26T22:41:09.945Z,22.79
2022-08-26T22:43:39.478Z,22.78
2022-08-26T22:46:09.732Z,22.72
2022-08-26T22:48:40.355Z,22.62
2022-08-26T22:51:09.650Z,22.71
2022-08-26T22:53:41.544Z,22.68
2022-08-26T22:56:12.301Z,22.70
2022-08-26T22:58:41.781Z,22.59
2022-08-26T23:01:10.829Z,22.55
2022-08-26T23:03:41.869Z,22.61
2022-08-26T23:06:12.030Z,22.59
2022-08-26T23:08:45.291Z,22.53
2022-08-26T23:11:16.138Z,22.47
2022-08-26T23:13:45.490Z,22.43
2022-08-26T23:16:15.191Z,22.40
2022-08-26T23:18:45.748Z,22.22
2022-08-26T23:21:15.385Z,22.16
2022-08-26T23:23:45.198Z,22.30
2022-08-26T23:26:17.553Z,22.32
2022-08-26T23:28:47.183Z,22.26
2022-08-26T23:31:16.481Z,22.25
2022-08-26T23:34:04.403Z,22.28
2022-08-26T23:36:34.378Z,22.28
2022-08-26T23:39:05.400Z,22.25
2022-08-26T23:41:35.952Z,22.20
2022-08-26T23:44:06.240Z,22.19
2022-08-26T23:46:36.840Z,22.15
2022-08-26T23:49:07.649Z,22.15
2022-08-26T23:51:54.428Z,22.10
2022-08-26T23:54:24.157Z,21.98
2022-08-26T23:56:53.525Z,22.02
2022-08-26T23:59:22.738Z,21.98
